Terminal Aerodrome Forecast
Issued by NWS

Home | Current Version | Previous Version | Text Only | Print | Product List | Glossary On
Versions: 1 2 3 4 5 6 7 8 9 10 11 12 13 14 15 16 17 18 19 20 21 22
257
FTUS46 KPDT 221300 AAA
TAFYKM
TAF AMD
KYKM 221300Z 2213/2312 26008KT P6SM BKN060 BKN080
     FM221700 28019G28KT P6SM SCT070 BKN250
     FM230300 27010KT P6SM BKN150=

USA.gov is the U.S. government's official web portal to all federal, state and local government web resources and services.